This is the latest recevied weather packets stored in our database for station/object N1PRS-9. If no packets are shown the sender has not sent any weather packets the latest 10 day(s).
| Time | Temp. | Humidity | Pressure | Rain* | Wind** | Luminosity | Snow |
|---|---|---|---|---|---|---|---|
| 1777935335 | 17.78° C | 50% | 1008.7 hPa | 0 mm | - | 47 W/m² | - |
| 1777934745 | 18.33° C | 49% | 1008.6 hPa | 0 mm | - | 53 W/m² | - |
| 1777930241 | 20.56° C | 43% | 1008.7 hPa | 0 mm | - | 390 W/m² | - |
| 1777928132 | 20.56° C | 42% | 1008.6 hPa | 0 mm | - | 543 W/m² | - |
| 1777927831 | 20.56° C | 41% | 1008.6 hPa | 0 mm | - | 555 W/m² | - |
| 1777927549 | 20.56° C | 42% | 1008.6 hPa | 0 mm | - | 584 W/m² | - |
| 1777926931 | 20.56° C | 41% | 1008.5 hPa | 0 mm | - | 621 W/m² | - |
| 1777926032 | 21.11° C | 40% | 1008.6 hPa | 0 mm | - | 668 W/m² | - |
| 1777925132 | 21.67° C | 38% | 1008.7 hPa | 0 mm | - | 622 W/m² | - |
| 1777924533 | 21.67° C | 38% | 1008.8 hPa | 0 mm | - | 722 W/m² | - |
| 1777924231 | 21.67° C | 37% | 1008.7 hPa | 0 mm | - | 763 W/m² | - |
| 1777923043 | 22.22° C | 34% | 1008.7 hPa | 0 mm | - | 780 W/m² | - |
| 1777921832 | 22.22° C | 34% | 1008.9 hPa | 0 mm | - | 844 W/m² | - |
| 1777920633 | 22.22° C | 35% | 1008.9 hPa | 0 mm | - | 865 W/m² | - |
| 1777920345 | 21.67° C | 34% | 1008.9 hPa | 0 mm | - | 856 W/m² | - |
| 1777920032 | 21.67° C | 36% | 1008.9 hPa | 0 mm | - | 872 W/m² | - |
| 1777919445 | 21.67° C | 35% | 1009 hPa | 0 mm | - | 875 W/m² | - |
| 1777917646 | 21.11° C | 35% | 1009.3 hPa | 0 mm | - | 907 W/m² | - |
| 1777916739 | 20.56° C | 36% | 1009.8 hPa | 0 mm | - | 919 W/m² | - |
| 1777916433 | 20.56° C | 35% | 1009.9 hPa | 0 mm | - | 930 W/m² | - |
| 1777915845 | 20.56° C | 37% | 1009.9 hPa | 0 mm | - | 947 W/m² | - |
| 1777914946 | 20.56° C | 36% | 1010.2 hPa | 0 mm | - | 937 W/m² | - |
| 1777914051 | 20° C | 36% | 1010.1 hPa | 0 mm | - | 937 W/m² | - |
| 1777912829 | 19.44° C | 37% | 1010.2 hPa | 0 mm | - | 935 W/m² | - |
| 1777911629 | 18.89° C | 37% | 1010.4 hPa | 0 mm | - | 846 W/m² | - |
* Rain latest hour (hover to see other rain measurements)
** Current wind speed in m/s (hover to see current wind gust speed)